Terminal Aerodrome Forecast
Issued by NWS Upton, NY

Home | Current Version | Previous Version | Text Only | Print | Product List | Glossary On
Versions: 1 2 3 4 5 6 7 8 9 10 11 12 13 14 15 16 17 18 19 20 21 22 23 24 25 26 27 28 29 30 31 32 33 34 35 36 37 38 39 40 41 42 43 44 45 46 47 48 49 50
925
FTUS41 KOKX 231720
TAFJFK
TAF
KJFK 231720Z 2318/2424 30020G30KT P6SM FEW040
     FM232300 30017G27KT P6SM SKC
     FM240200 30015G21KT P6SM SKC
     FM240400 30012KT P6SM SKC
     FM241100 27010KT P6SM SKC
     FM241700 23014KT P6SM SCT200=

USA.gov is the U.S. government's official web portal to all federal, state and local government web resources and services.